Time;durP1;ratioP1;P1;durP2;ratioP2;P2;SDS_P1;SDS_P2;PMS_P1;PMS_P2;Temp;Humidity;BMP_temperature;BMP_pressure;BME280_temperature;BME280_humidity;BME280_pressure;Samples;Min_cycle;Max_cycle;Signal;HPM_P1;HPM_P2
2022/01/01 00:00:12;;;;;;;188.60;83.72;;;;;;;3.60;94.41;95102.22;5008836;28;20544;-73
2022/01/01 00:02:41;;;;;;;193.45;86.53;;;;;;;3.41;94.63;95094.78;5009119;28;20196;-73
2022/01/01 00:05:10;;;;;;;203.40;88.55;;;;;;;3.29;95.10;95096.91;5009035;28;20204;-73
2022/01/01 00:07:39;;;;;;;195.38;83.43;;;;;;;3.37;95.88;95096.38;5009090;28;20232;-73
2022/01/01 00:10:07;;;;;;;195.88;81.38;;;;;;;3.36;95.56;95081.38;5008988;28;20221;-73
2022/01/01 00:12:34;;;;;;;172.25;74.78;;;;;;;3.37;95.64;95083.00;5011328;28;20209;-72
2022/01/01 00:15:02;;;;;;;160.50;71.20;;;;;;;3.51;95.13;95094.75;5012405;28;20617;-73
2022/01/01 00:17:29;;;;;;;178.15;75.25;;;;;;;3.49;94.69;95094.22;5012235;28;20275;-73
2022/01/01 00:19:57;;;;;;;209.55;89.18;;;;;;;3.14;94.63;95072.88;5012307;28;20231;-72
2022/01/01 00:22:24;;;;;;;192.98;84.70;;;;;;;3.31;94.59;95088.59;5012744;28;20198;-73
2022/01/01 00:24:51;;;;;;;200.57;84.70;;;;;;;3.34;94.78;95078.16;5012212;28;20241;-72
2022/01/01 00:27:18;;;;;;;167.90;71.72;;;;;;;3.38;94.87;95079.25;5012300;28;20208;-73
2022/01/01 00:29:45;;;;;;;184.20;78.57;;;;;;;3.42;94.69;95085.63;5011498;28;20660;-72
2022/01/01 00:32:12;;;;;;;177.60;75.93;;;;;;;3.29;94.41;95075.50;5012315;28;20225;-73
2022/01/01 00:34:39;;;;;;;199.85;82.15;;;;;;;3.42;94.91;95080.28;5012032;28;20201;-73
2022/01/01 00:37:08;;;;;;;161.77;68.90;;;;;;;3.30;94.63;95082.44;5012395;28;20205;-72
2022/01/01 00:39:34;;;;;;;157.30;67.93;;;;;;;3.30;94.44;95082.44;5011884;28;20224;-72
2022/01/01 00:42:01;;;;;;;174.93;76.70;;;;;;;3.30;94.54;95087.81;5011689;28;20380;-73
2022/01/01 00:44:30;;;;;;;156.55;70.95;;;;;;;3.38;94.81;95084.59;5011987;28;20205;-74
2022/01/01 00:46:57;;;;;;;147.32;63.10;;;;;;;3.33;94.47;95084.59;5012161;28;20288;-73
2022/01/01 00:49:24;;;;;;;142.95;65.57;;;;;;;3.34;94.16;95077.38;5011922;28;20249;-72
2022/01/01 00:51:51;;;;;;;150.88;64.70;;;;;;;3.19;94.22;95070.97;5012268;28;20212;-73
2022/01/01 00:54:19;;;;;;;135.40;59.42;;;;;;;3.27;94.31;95069.63;5011950;28;20247;-74
2022/01/01 00:56:47;;;;;;;163.15;67.88;;;;;;;3.29;94.40;95063.97;5011921;28;20201;-73
2022/01/01 00:59:15;;;;;;;141.73;64.50;;;;;;;3.41;94.16;95064.50;5011800;28;20225;-73
2022/01/01 01:01:42;;;;;;;167.30;75.20;;;;;;;3.35;94.07;95063.72;5011570;28;20224;-73
2022/01/01 01:04:09;;;;;;;161.27;69.07;;;;;;;3.39;94.36;95054.06;5011595;28;20205;-73
2022/01/01 01:06:36;;;;;;;155.98;71.60;;;;;;;3.34;94.05;95048.72;5011734;28;20201;-73
2022/01/01 01:09:03;;;;;;;153.20;65.20;;;;;;;3.30;94.45;95049.53;5011708;28;20205;-73
2022/01/01 01:11:40;;;;;;;141.23;62.03;;;;;;;3.27;94.46;95044.72;5011727;28;20212;-73
2022/01/01 01:14:10;;;;;;;134.50;56.67;;;;;;;3.33;94.60;95044.44;5011392;28;20288;-73
2022/01/01 01:16:37;;;;;;;133.82;58.67;;;;;;;3.39;94.35;95046.03;5011829;28;20221;-73
2022/01/01 01:19:04;;;;;;;124.50;59.38;;;;;;;3.40;93.83;95038.81;5011328;28;20704;-73
2022/01/01 01:21:31;;;;;;;138.40;60.72;;;;;;;3.37;93.80;95045.50;5011410;28;20201;-73
2022/01/01 01:23:58;;;;;;;126.40;55.17;;;;;;;3.26;93.76;95051.16;5010076;28;20255;-73
2022/01/01 01:26:28;;;;;;;132.48;56.33;;;;;;;3.16;93.99;95033.22;5011835;28;20205;-73
2022/01/01 01:28:57;;;;;;;117.70;52.72;;;;;;;3.26;93.90;95043.94;5011265;28;20254;-73
2022/01/01 01:31:25;;;;;;;114.90;53.00;;;;;;;3.14;93.60;95048.78;5010581;28;20315;-73
2022/01/01 01:33:52;;;;;;;117.47;51.60;;;;;;;3.00;92.98;95061.09;5011428;28;20478;-73
2022/01/01 01:36:19;;;;;;;106.88;45.10;;;;;;;2.87;93.45;95061.66;5011357;28;20185;-73
2022/01/01 01:38:45;;;;;;;116.28;45.70;;;;;;;3.02;93.77;95070.44;5011116;28;20229;-73
2022/01/01 01:41:13;;;;;;;100.93;44.92;;;;;;;2.66;92.64;95066.97;5010661;28;20243;-72
2022/01/01 01:43:39;;;;;;;117.85;48.55;;;;;;;2.57;94.14;95067.78;5010856;28;20514;-73
2022/01/01 01:46:12;;;;;;;105.47;43.20;;;;;;;2.63;94.48;95078.22;5010550;28;20212;-73
2022/01/01 01:48:40;;;;;;;105.85;45.65;;;;;;;2.67;94.26;95073.13;5009960;28;20244;-73
2022/01/01 01:51:07;;;;;;;115.43;49.95;;;;;;;2.84;94.69;95063.78;5011131;28;20296;-73
2022/01/01 01:53:34;;;;;;;96.82;44.10;;;;;;;2.84;93.89;95063.78;5010815;28;20193;-73
2022/01/01 01:56:01;;;;;;;112.15;50.60;;;;;;;2.93;93.84;95071.25;5010873;28;20331;-72
2022/01/01 01:58:30;;;;;;;115.95;51.17;;;;;;;2.94;94.20;95065.63;5010636;28;20568;-72
2022/01/01 02:03:39;;;;;;;106.32;45.33;;;;;;;2.93;94.08;95065.91;5006883;28;20414;-72
2022/01/01 02:06:07;;;;;;;96.35;39.67;;;;;;;2.92;94.63;95058.94;5010564;28;20201;-72
2022/01/01 02:08:34;;;;;;;109.18;44.13;;;;;;;2.91;94.74;95043.97;5010642;28;20205;-71
2022/01/01 02:11:02;;;;;;;45.85;20.95;;;;;;;3.01;95.15;95041.28;5010863;28;20201;-72
2022/01/01 02:13:34;;;;;;;111.63;47.50;;;;;;;3.11;95.02;95046.63;5010186;28;20702;-72
2022/01/01 02:16:26;;;;;;;111.28;43.83;;;;;;;3.18;94.86;95036.44;5010097;28;20232;-73
2022/01/01 02:18:56;;;;;;;77.40;34.90;;;;;;;3.04;95.18;95043.41;5009984;28;20221;-72
2022/01/01 02:21:24;;;;;;;87.22;39.40;;;;;;;2.96;95.24;95035.94;5010030;28;20296;-72
2022/01/01 02:23:57;;;;;;;71.80;34.03;;;;;;;3.03;95.64;95044.47;5010115;28;20267;-72
2022/01/01 02:26:29;;;;;;;86.90;34.33;;;;;;;3.13;95.75;95039.94;5010517;28;20217;-73
2022/01/01 02:28:57;;;;;;;87.63;39.67;;;;;;;3.15;95.62;95032.41;5010079;28;20569;-73
2022/01/01 02:31:23;;;;;;;88.35;39.55;;;;;;;3.12;95.63;95038.34;5009416;28;20224;-73
2022/01/01 02:33:50;;;;;;;87.55;39.00;;;;;;;3.01;94.80;95035.91;5009176;28;20208;-73
2022/01/01 02:36:31;;;;;;;135.85;56.25;;;;;;;2.83;95.12;95034.63;5010127;28;20251;-72
2022/01/01 02:38:58;;;;;;;108.13;46.10;;;;;;;2.77;95.23;95036.47;5010054;28;20228;-73
2022/01/01 02:41:26;;;;;;;128.82;58.08;;;;;;;2.71;95.58;95032.22;5009493;28;20243;-73
2022/01/01 02:43:53;;;;;;;139.98;59.05;;;;;;;2.77;95.62;95023.13;5009749;28;20232;-72
2022/01/01 02:46:20;;;;;;;102.75;44.03;;;;;;;2.85;95.59;95022.59;5009067;28;20849;-73
2022/01/01 02:48:47;;;;;;;99.82;41.25;;;;;;;2.97;95.00;95029.53;5009781;28;20225;-73
2022/01/01 02:51:14;;;;;;;82.85;38.28;;;;;;;2.99;95.24;95027.38;5009564;28;20190;-73
2022/01/01 02:53:46;;;;;;;77.32;35.85;;;;;;;3.00;94.64;95027.13;5009420;28;20212;-73
2022/01/01 02:56:13;;;;;;;157.50;58.92;;;;;;;2.98;94.01;95031.13;5009067;28;20224;-73
2022/01/01 02:58:42;;;;;;;104.82;42.13;;;;;;;2.94;93.94;95022.03;5008994;28;20229;-73
2022/01/01 03:01:08;;;;;;;80.43;32.25;;;;;;;2.89;93.86;95022.03;5010037;28;20213;-72
2022/01/01 03:03:35;;;;;;;72.07;33.33;;;;;;;2.90;94.20;95019.09;5009652;28;20248;-73
2022/01/01 03:06:03;;;;;;;68.28;29.98;;;;;;;2.82;94.46;95007.06;5009722;28;20200;-73
2022/01/01 03:08:30;;;;;;;60.45;27.50;;;;;;;2.84;94.19;95010.28;5008972;28;20232;-73
2022/01/01 03:10:58;;;;;;;64.70;29.90;;;;;;;2.85;94.42;95005.72;5009921;28;20208;-73
2022/01/01 03:13:25;;;;;;;66.65;29.15;;;;;;;2.83;94.35;95008.69;5009470;28;20210;-73
2022/01/01 03:15:52;;;;;;;66.45;28.25;;;;;;;2.93;94.46;94996.34;5009383;28;20691;-73
2022/01/01 03:18:19;;;;;;;33.08;15.73;;;;;;;3.09;93.87;94984.53;5009183;28;20535;-72
2022/01/01 03:20:45;;;;;;;58.65;23.58;;;;;;;3.05;94.68;94994.19;5009083;28;20208;-72
2022/01/01 03:23:12;;;;;;;64.00;27.42;;;;;;;3.04;94.19;94997.91;5010029;28;20628;-73
2022/01/01 03:25:39;;;;;;;63.38;28.38;;;;;;;3.05;94.36;94991.50;5011542;28;20200;-72
2022/01/01 03:28:08;;;;;;;54.95;25.38;;;;;;;2.80;94.45;94987.81;5011442;28;20196;-72
2022/01/01 03:30:34;;;;;;;65.18;26.20;;;;;;;2.89;95.67;95000.63;5011694;28;20542;-72
2022/01/01 03:33:01;;;;;;;59.85;26.27;;;;;;;3.10;95.83;95002.22;5009126;28;20225;-73
2022/01/01 03:35:28;;;;;;;69.10;29.63;;;;;;;3.16;95.60;95001.09;5009224;28;20576;-72
2022/01/01 03:37:55;;;;;;;98.35;45.67;;;;;;;2.83;94.79;94997.97;5009410;28;20215;-72
2022/01/01 03:40:22;;;;;;;83.35;34.78;;;;;;;3.00;95.39;95002.22;5009364;28;20355;-72
2022/01/01 03:42:49;;;;;;;99.22;44.05;;;;;;;3.01;95.32;94998.47;5009069;28;20261;-73
2022/01/01 03:45:18;;;;;;;92.38;43.22;;;;;;;3.09;95.38;95000.59;5009026;28;20664;-72
2022/01/01 03:47:45;;;;;;;89.80;39.05;;;;;;;3.19;95.30;95000.56;5012586;28;20231;-71
2022/01/01 03:50:12;;;;;;;79.80;36.65;;;;;;;3.26;94.79;95000.28;5012679;28;20623;-74
2022/01/01 03:52:42;;;;;;;80.13;34.35;;;;;;;3.30;94.70;95007.50;5012932;28;20256;-73
2022/01/01 03:55:10;;;;;;;87.63;33.85;;;;;;;3.31;94.33;95009.09;5012975;28;20248;-73
2022/01/01 03:57:37;;;;;;;68.45;29.75;;;;;;;3.38;94.44;95004.28;5012989;28;20201;-73
2022/01/01 04:00:07;;;;;;;63.90;28.92;;;;;;;3.44;94.50;94997.81;5012986;28;20588;-73
2022/01/01 04:02:35;;;;;;;74.47;32.90;;;;;;;3.47;94.06;94970.50;5012934;28;20224;-72
2022/01/01 04:05:03;;;;;;;70.90;30.80;;;;;;;3.39;92.81;94979.09;5013038;28;20672;-73
2022/01/01 04:07:31;;;;;;;72.57;30.60;;;;;;;3.36;93.18;94978.84;5013003;28;20300;-73
2022/01/01 04:09:58;;;;;;;62.35;28.35;;;;;;;3.42;93.45;94969.69;5013165;28;20212;-73
2022/01/01 04:12:25;;;;;;;51.63;24.83;;;;;;;3.43;93.55;94964.06;5012646;28;20205;-73
2022/01/01 04:14:53;;;;;;;62.00;28.10;;;;;;;3.48;93.20;94961.38;5012624;28;20208;-73
2022/01/01 04:17:20;;;;;;;59.72;27.15;;;;;;;3.53;93.57;94964.03;5012831;28;20588;-74
2022/01/01 04:19:48;;;;;;;60.60;27.70;;;;;;;3.43;93.09;94958.72;5012360;28;20645;-73
2022/01/01 04:22:16;;;;;;;66.72;27.13;;;;;;;3.42;93.50;94956.31;5013033;28;20552;-73
2022/01/01 04:24:43;;;;;;;57.05;24.38;;;;;;;3.52;93.44;94954.41;5012210;28;20205;-74
2022/01/01 04:27:10;;;;;;;56.47;25.15;;;;;;;3.52;93.94;94956.28;5012757;28;20200;-71
2022/01/01 04:29:38;;;;;;;53.95;24.23;;;;;;;3.43;93.64;94937.28;5012546;28;20212;-73
2022/01/01 04:32:05;;;;;;;55.13;25.63;;;;;;;3.41;94.01;94950.19;5012518;28;20229;-72
2022/01/01 04:34:32;;;;;;;114.88;53.90;;;;;;;3.29;93.80;94946.19;5012420;28;20208;-74
2022/01/01 04:37:03;;;;;;;69.10;30.83;;;;;;;3.30;94.16;94953.94;5012138;28;20899;-74
2022/01/01 04:39:30;;;;;;;71.13;30.58;;;;;;;3.37;94.39;94949.13;5012158;28;20221;-73
2022/01/01 04:41:57;;;;;;;76.22;33.63;;;;;;;3.34;94.44;94936.28;5012105;28;20229;-73
2022/01/01 04:44:24;;;;;;;77.53;33.20;;;;;;;3.28;94.05;94937.34;5012197;28;20208;-74
2022/01/01 04:46:51;;;;;;;78.50;33.30;;;;;;;3.39;93.77;94941.63;5011973;28;20312;-74
2022/01/01 04:49:18;;;;;;;49.63;23.80;;;;;;;3.41;93.48;94933.31;5011725;28;20228;-73
2022/01/01 04:51:45;;;;;;;50.85;21.45;;;;;;;3.00;93.37;94948.72;5011825;28;20200;-73
2022/01/01 04:54:15;;;;;;;53.80;25.95;;;;;;;2.79;93.66;94946.06;5012007;28;20209;-74
2022/01/01 04:56:44;;;;;;;53.42;25.65;;;;;;;2.91;94.71;94944.97;5011398;28;20223;-73
2022/01/01 04:59:12;;;;;;;58.67;24.92;;;;;;;2.78;94.91;94946.34;5011715;28;20224;-73
2022/01/01 05:01:39;;;;;;;60.50;27.42;;;;;;;2.97;94.93;94944.72;5012006;28;20719;-73
2022/01/01 05:04:06;;;;;;;61.92;25.17;;;;;;;3.14;95.47;94925.66;5011381;28;20247;-73
2022/01/01 05:06:33;;;;;;;60.35;26.40;;;;;;;3.17;94.71;94917.06;5011471;28;20189;-73
2022/01/01 05:09:01;;;;;;;54.38;23.08;;;;;;;3.29;94.39;94944.31;5011130;28;20211;-73
2022/01/01 05:11:29;;;;;;;67.38;31.67;;;;;;;3.27;94.34;94954.53;5011848;28;20227;-73
2022/01/01 05:13:56;;;;;;;69.85;30.92;;;;;;;3.29;93.98;94952.34;5011316;28;20205;-74
2022/01/01 05:16:23;;;;;;;60.45;27.00;;;;;;;3.40;94.35;94970.00;5011574;28;20225;-73
2022/01/01 05:18:50;;;;;;;66.85;29.80;;;;;;;3.37;93.89;94981.25;5011460;28;20212;-73
2022/01/01 05:21:17;;;;;;;67.57;29.90;;;;;;;3.56;94.32;94984.09;5010816;28;20225;-73
2022/01/01 05:23:44;;;;;;;60.05;26.95;;;;;;;3.43;93.79;94996.19;5010053;28;20588;-73
2022/01/01 05:26:12;;;;;;;75.95;30.88;;;;;;;3.63;93.32;94986.50;5010692;28;20213;-73
2022/01/01 05:28:40;;;;;;;68.68;28.52;;;;;;;3.66;93.28;94988.63;5011420;28;20278;-73
2022/01/01 05:31:07;;;;;;;57.35;26.80;;;;;;;3.56;93.16;94990.25;5011272;28;20205;-74
2022/01/01 05:33:34;;;;;;;55.78;23.45;;;;;;;3.63;93.62;94995.31;5010656;28;20257;-73
2022/01/01 05:36:01;;;;;;;34.78;18.60;;;;;;;3.56;93.87;95003.66;5010197;28;20649;-73
2022/01/01 05:38:28;;;;;;;46.40;22.17;;;;;;;3.63;93.85;95005.25;5010594;28;20556;-73
2022/01/01 05:40:55;;;;;;;43.05;19.48;;;;;;;3.55;93.93;95010.06;5010684;28;20240;-74
2022/01/01 05:43:23;;;;;;;68.07;29.58;;;;;;;3.42;93.72;95005.31;5010902;28;20196;-73
2022/01/01 05:45:51;;;;;;;44.58;20.15;;;;;;;3.44;94.14;95013.88;5011037;28;20205;-73
2022/01/01 05:48:18;;;;;;;51.10;22.02;;;;;;;3.47;94.06;95017.88;5010424;28;20239;-74
2022/01/01 05:50:45;;;;;;;44.17;19.25;;;;;;;3.53;94.03;95011.44;5010587;28;20204;-74
2022/01/01 05:53:12;;;;;;;40.67;20.88;;;;;;;3.46;93.86;95003.69;5010418;28;20197;-74
2022/01/01 05:55:39;;;;;;;40.30;17.23;;;;;;;3.38;93.72;95014.97;5010856;28;20201;-74
2022/01/01 05:58:06;;;;;;;41.72;16.45;;;;;;;3.36;93.85;94998.38;5010597;28;20201;-74
2022/01/01 06:00:34;;;;;;;47.00;18.60;;;;;;;3.10;94.36;94994.19;5010377;28;20906;-74
2022/01/01 06:03:02;;;;;;;34.40;15.38;;;;;;;3.06;94.44;94995.78;5010984;28;20598;-74
2022/01/01 06:05:30;;;;;;;34.65;14.80;;;;;;;3.15;94.75;94994.16;5010636;28;20197;-74
2022/01/01 06:07:59;;;;;;;29.45;13.32;;;;;;;3.27;94.81;94992.00;5010816;28;20205;-74
2022/01/01 06:10:27;;;;;;;23.40;11.98;;;;;;;3.48;94.44;94992.72;5009519;28;20641;-74
2022/01/01 06:12:56;;;;;;;26.38;13.20;;;;;;;3.42;94.65;94989.25;5010138;28;20595;-74
2022/01/01 06:15:23;;;;;;;25.55;13.02;;;;;;;3.52;94.46;94983.88;5010549;28;20205;-74
2022/01/01 06:17:50;;;;;;;27.83;13.20;;;;;;;3.51;94.55;94982.25;5010664;28;20602;-74
2022/01/01 06:20:19;;;;;;;37.90;14.98;;;;;;;3.40;94.45;94983.38;5010091;28;20228;-74
2022/01/01 06:22:46;;;;;;;33.88;15.38;;;;;;;3.58;94.97;94987.31;5010326;28;20208;-74
2022/01/01 06:25:12;;;;;;;32.80;16.25;;;;;;;3.64;95.01;94988.91;5009996;28;20237;-74
2022/01/01 06:27:39;;;;;;;40.22;17.08;;;;;;;3.65;94.88;94987.81;5010242;28;20213;-74
2022/01/01 06:30:07;;;;;;;51.95;24.85;;;;;;;3.61;94.65;94980.59;5009848;28;20603;-74
2022/01/01 06:32:34;;;;;;;40.75;19.80;;;;;;;3.71;94.63;94976.00;5009215;28;20222;-74
2022/01/01 06:35:01;;;;;;;34.75;15.18;;;;;;;3.74;93.86;94982.69;5009861;28;20631;-74
2022/01/01 06:37:29;;;;;;;35.40;17.15;;;;;;;3.86;94.11;94977.78;5010229;28;20599;-74
2022/01/01 06:39:56;;;;;;;42.17;19.02;;;;;;;4.10;93.97;94997.47;5009885;28;20571;-74
2022/01/01 06:42:23;;;;;;;38.78;17.30;;;;;;;4.36;93.39;94998.13;5009982;28;20873;-74
2022/01/01 06:44:50;;;;;;;36.42;18.88;;;;;;;4.31;92.50;94992.00;5009836;28;20596;-74
2022/01/01 06:47:17;;;;;;;47.72;21.20;;;;;;;4.36;92.10;95013.44;5010020;28;20200;-74
2022/01/01 06:49:44;;;;;;;50.45;23.63;;;;;;;4.19;92.44;95006.56;5009519;28;20205;-73
2022/01/01 06:52:11;;;;;;;45.10;22.38;;;;;;;4.42;92.42;95012.28;5009954;28;20209;-73
2022/01/01 06:54:39;;;;;;;48.67;22.58;;;;;;;4.60;91.99;95014.31;5009577;28;20201;-73
2022/01/01 06:57:06;;;;;;;46.85;22.40;;;;;;;4.57;91.83;95004.13;5009438;28;20205;-73
2022/01/01 06:59:33;;;;;;;50.33;21.75;;;;;;;4.86;91.06;95020.28;5009299;28;20292;-74
2022/01/01 07:01:59;;;;;;;50.95;23.98;;;;;;;5.09;91.16;95021.41;5010018;28;20411;-73
2022/01/01 07:04:26;;;;;;;47.97;21.52;;;;;;;5.26;90.59;95005.66;5009409;28;20637;-73
2022/01/01 07:06:53;;;;;;;41.92;20.80;;;;;;;5.40;90.42;95005.78;5009875;28;20223;-72
2022/01/01 07:09:20;;;;;;;40.58;19.58;;;;;;;5.31;89.73;95009.09;5009652;28;20255;-73
2022/01/01 07:11:50;;;;;;;39.33;18.50;;;;;;;5.41;90.38;95004.69;5009813;28;20204;-73
2022/01/01 07:14:21;;;;;;;43.75;19.70;;;;;;;5.56;90.64;95010.69;5009530;28;20228;-73
2022/01/01 07:16:48;;;;;;;44.75;18.83;;;;;;;5.56;90.50;95016.06;5009563;28;20312;-73
2022/01/01 07:19:14;;;;;;;38.75;18.85;;;;;;;5.58;90.91;95024.66;5009372;28;20255;-73
2022/01/01 07:21:41;;;;;;;36.63;18.50;;;;;;;5.61;89.91;95021.38;5009112;28;20592;-73
2022/01/01 07:24:08;;;;;;;38.00;17.02;;;;;;;5.68;90.33;95023.72;5009312;28;20646;-74
2022/01/01 07:26:35;;;;;;;38.05;19.00;;;;;;;5.59;90.55;95031.63;5009015;28;20208;-72
2022/01/01 07:29:04;;;;;;;37.03;17.42;;;;;;;5.44;90.34;95034.47;5009466;28;20231;-74
2022/01/01 07:31:30;;;;;;;35.10;16.33;;;;;;;5.63;90.83;95029.94;5008654;28;20861;-73
2022/01/01 07:33:57;;;;;;;32.42;15.98;;;;;;;5.69;90.13;95020.75;5009367;28;20267;-73
2022/01/01 07:36:24;;;;;;;75.43;29.65;;;;;;;5.78;89.91;95017.41;5009252;28;20197;-72
2022/01/01 07:38:51;;;;;;;61.78;32.90;;;;;;;5.99;90.33;95018.81;5009249;28;20539;-73
2022/01/01 07:41:18;;;;;;;58.10;24.02;;;;;;;6.12;89.83;95015.41;5008902;28;20240;-73
2022/01/01 07:43:45;;;;;;;41.25;16.30;;;;;;;6.33;88.71;95024.78;5009548;28;20205;-73
2022/01/01 07:46:13;;;;;;;34.08;17.83;;;;;;;6.19;88.52;95033.88;5009093;28;20216;-73
2022/01/01 07:48:40;;;;;;;40.42;19.75;;;;;;;6.22;88.54;95036.78;5009221;28;20220;-72
2022/01/01 07:51:07;;;;;;;45.75;24.35;;;;;;;6.34;88.65;95037.16;5009236;28;20204;-73
2022/01/01 07:53:34;;;;;;;41.28;19.30;;;;;;;6.60;87.87;95034.09;5008920;28;20220;-73
2022/01/01 07:56:00;;;;;;;35.13;18.42;;;;;;;6.80;88.17;95028.41;5010052;28;20201;-73
2022/01/01 07:58:28;;;;;;;40.13;18.13;;;;;;;7.23;88.09;95025.53;5009151;28;20616;-72
2022/01/01 08:00:55;;;;;;;39.67;18.50;;;;;;;7.74;86.93;95020.78;5008974;28;20658;-73
2022/01/01 08:03:23;;;;;;;36.30;17.90;;;;;;;8.15;85.11;95003.78;5008829;28;20204;-73
2022/01/01 08:05:50;;;;;;;29.20;13.23;;;;;;;8.57;82.38;95004.50;5008421;28;20677;-74
2022/01/01 08:08:17;;;;;;;19.63;8.27;;;;;;;9.01;80.55;95004.53;5009088;28;20205;-73
2022/01/01 08:10:44;;;;;;;18.63;8.95;;;;;;;9.33;79.19;94992.59;5009024;28;20212;-74
2022/01/01 08:13:10;;;;;;;12.80;6.28;;;;;;;9.93;76.10;94998.25;5008447;28;20683;-73
2022/01/01 08:15:37;;;;;;;5.28;2.67;;;;;;;10.55;73.33;94984.53;5008025;28;20201;-77
2022/01/01 08:18:06;;;;;;;9.23;4.78;;;;;;;10.88;72.91;94987.56;5008477;28;20928;-73
2022/01/01 08:20:34;;;;;;;14.20;6.40;;;;;;;10.96;72.35;94991.38;5008367;28;20263;-73
2022/01/01 08:23:01;;;;;;;9.18;5.38;;;;;;;10.97;71.46;94999.19;5008705;28;21021;-74
2022/01/01 08:25:28;;;;;;;8.10;4.18;;;;;;;10.87;71.88;95004.13;5008967;28;20201;-74
2022/01/01 08:27:55;;;;;;;11.18;6.05;;;;;;;10.86;71.68;95002.53;5008510;28;20197;-73
2022/01/01 08:30:22;;;;;;;11.38;5.95;;;;;;;10.97;71.23;94992.97;5008889;28;20201;-73
2022/01/01 08:32:49;;;;;;;11.50;6.40;;;;;;;11.00;71.09;94993.13;5009921;28;20225;-73
2022/01/01 08:35:16;;;;;;;10.65;4.53;;;;;;;10.97;71.20;94992.97;5012440;28;20543;-81
2022/01/01 08:37:44;;;;;;;11.77;5.82;;;;;;;11.01;71.62;94999.34;5012228;28;20308;-73
2022/01/01 08:40:12;;;;;;;8.57;4.70;;;;;;;11.03;71.77;94999.81;5011990;28;20197;-73
2022/01/01 08:42:39;;;;;;;8.77;5.30;;;;;;;11.05;71.94;95000.31;5011808;28;20288;-73
2022/01/01 08:45:06;;;;;;;8.07;5.00;;;;;;;11.16;71.32;95006.97;5012012;28;20197;-72
2022/01/01 08:47:33;;;;;;;6.53;3.97;;;;;;;11.32;70.76;95005.34;5011814;28;20236;-73
2022/01/01 08:50:00;;;;;;;4.43;3.42;;;;;;;11.51;70.26;95006.88;5012070;28;20541;-72
2022/01/01 08:52:28;;;;;;;6.35;3.42;;;;;;;11.66;69.43;95011.78;5012200;28;20197;-72
2022/01/01 08:54:57;;;;;;;4.07;2.50;;;;;;;11.80;68.51;95006.97;5012263;28;20235;-73
2022/01/01 08:57:25;;;;;;;3.00;2.17;;;;;;;11.93;67.15;95010.59;5012180;28;20251;-75
2022/01/01 08:59:52;;;;;;;1.52;1.23;;;;;;;11.99;66.24;95006.59;5011417;28;20271;-77
2022/01/01 09:02:19;;;;;;;3.22;1.80;;;;;;;12.10;66.71;95024.09;5011744;28;20240;-73
2022/01/01 09:04:46;;;;;;;2.75;1.90;;;;;;;12.16;65.72;95013.84;5011411;28;20208;-73
2022/01/01 09:07:13;;;;;;;2.17;1.63;;;;;;;12.27;64.87;95023.22;5011864;28;20263;-73
2022/01/01 09:09:40;;;;;;;7.03;1.60;;;;;;;12.31;64.91;95032.28;5011861;28;20228;-74
2022/01/01 09:12:10;;;;;;;3.60;2.15;;;;;;;12.37;65.12;95033.69;5011909;28;20197;-72
2022/01/01 09:14:37;;;;;;;2.30;1.80;;;;;;;12.35;65.62;95035.94;5011669;28;20618;-73
2022/01/01 09:17:05;;;;;;;6.15;3.00;;;;;;;12.31;66.07;95035.81;5011755;28;20224;-72
2022/01/01 09:19:32;;;;;;;4.40;2.35;;;;;;;12.41;66.18;95040.09;5011305;28;20212;-73
2022/01/01 09:21:59;;;;;;;7.13;2.40;;;;;;;12.44;65.93;95033.97;5011436;28;20228;-72
2022/01/01 09:24:26;;;;;;;4.00;2.10;;;;;;;12.43;65.94;95040.56;5011798;28;20211;-72
2022/01/01 09:26:53;;;;;;;3.83;2.08;;;;;;;12.46;65.34;95042.59;5011280;28;20201;-73
2022/01/01 09:29:22;;;;;;;4.13;2.15;;;;;;;12.54;65.03;95041.75;5011755;28;20208;-73
2022/01/01 09:31:49;;;;;;;2.22;1.90;;;;;;;12.62;64.70;95030.03;5010464;28;20306;-73
2022/01/01 09:34:15;;;;;;;4.55;2.22;;;;;;;12.85;63.86;95033.19;5010980;28;20259;-72
2022/01/01 09:36:42;;;;;;;4.03;1.98;;;;;;;12.97;63.48;95032.50;5011230;28;20201;-73
2022/01/01 09:39:09;;;;;;;2.58;2.03;;;;;;;13.26;62.52;95032.41;5011044;28;20205;-72
2022/01/01 09:41:41;;;;;;;2.30;1.48;;;;;;;13.44;62.03;95042.00;5010570;28;20774;-72
2022/01/01 09:44:13;;;;;;;2.95;2.20;;;;;;;13.39;61.35;95031.31;5010034;28;20197;-76
2022/01/01 09:46:44;;;;;;;2.78;1.92;;;;;;;13.33;61.53;95043.56;5011193;28;20311;-72
2022/01/01 09:49:11;;;;;;;3.67;2.20;;;;;;;13.37;61.48;95049.94;5010916;28;20561;-73
2022/01/01 09:51:38;;;;;;;3.45;2.25;;;;;;;13.27;61.48;95038.63;5011177;28;20197;-72
2022/01/01 09:54:05;;;;;;;2.40;1.85;;;;;;;13.12;62.02;95042.75;5011612;28;20676;-77
2022/01/01 09:56:32;;;;;;;3.42;2.10;;;;;;;13.20;61.74;95050.06;5012537;28;20205;-72
2022/01/01 09:58:59;;;;;;;5.55;1.98;;;;;;;12.94;61.97;95047.53;5011800;28;20197;-74
2022/01/01 10:01:26;;;;;;;3.25;1.80;;;;;;;12.76;62.30;95049.59;5011211;28;20664;-73
2022/01/01 10:03:56;;;;;;;3.10;2.10;;;;;;;12.75;63.26;95056.16;5010075;28;20207;-72
2022/01/01 10:06:26;;;;;;;2.85;2.30;;;;;;;12.71;62.06;95060.66;5010459;28;20300;-74
2022/01/01 10:08:57;;;;;;;4.28;2.33;;;;;;;12.74;62.60;95076.31;5010746;28;20312;-72
2022/01/01 10:11:25;;;;;;;4.10;2.50;;;;;;;12.68;62.60;95082.28;5010284;28;20185;-76
2022/01/01 10:13:52;;;;;;;2.90;1.88;;;;;;;12.53;62.58;95075.50;5010114;28;20200;-71
2022/01/01 10:16:21;;;;;;;3.22;2.55;;;;;;;12.54;62.85;95059.97;5009767;28;20739;-72
2022/01/01 10:18:50;;;;;;;5.43;2.25;;;;;;;12.35;64.09;95073.97;5010155;28;20209;-75
2022/01/01 10:21:20;;;;;;;3.90;2.33;;;;;;;12.17;64.22;95056.97;5010145;28;20232;-73
2022/01/01 10:23:50;;;;;;;3.42;2.50;;;;;;;12.28;64.12;95073.72;5010231;28;20607;-73
2022/01/01 10:29:10;;;;;;;4.63;3.10;;;;;;;12.85;62.63;95059.63;5010266;28;20196;-72
2022/01/01 10:31:38;;;;;;;4.50;2.45;;;;;;;12.90;62.47;95052.03;5009649;28;20253;-72
2022/01/01 10:34:13;;;;;;;4.75;2.90;;;;;;;12.60;63.10;95037.69;5009852;28;20204;-71
2022/01/01 10:36:45;;;;;;;3.85;2.65;;;;;;;12.72;62.95;95050.56;5009944;28;20207;-73
2022/01/01 10:39:14;;;;;;;4.43;3.10;;;;;;;12.67;62.94;95035.28;5009915;28;20202;-71
2022/01/01 10:41:47;;;;;;;4.57;2.90;;;;;;;12.61;63.31;95041.22;5008884;28;20252;-72
2022/01/01 10:44:15;;;;;;;4.35;2.85;;;;;;;12.39;63.73;95040.41;5009279;28;20726;-72
2022/01/01 10:46:42;;;;;;;3.45;2.50;;;;;;;12.33;63.82;95032.75;5009811;28;20715;-76
2022/01/01 10:49:33;;;;;;;5.22;3.10;;;;;;;12.49;63.71;95036.50;5009983;28;20229;-73
2022/01/01 10:52:16;;;;;;;5.13;3.08;;;;;;;12.61;63.49;95027.63;5009601;28;20250;-72
2022/01/01 10:54:49;;;;;;;3.90;3.00;;;;;;;12.81;63.05;95022.22;5008855;28;20592;-73
2022/01/01 10:57:25;;;;;;;5.93;2.80;;;;;;;13.22;61.02;95009.75;5009168;28;20276;-73
2022/01/01 11:00:03;;;;;;;4.45;2.78;;;;;;;13.34;60.88;95009.78;5009443;28;20197;-73
2022/01/01 11:02:32;;;;;;;4.28;2.38;;;;;;;13.42;60.47;95008.88;5009742;28;20251;-74
2022/01/01 11:04:59;;;;;;;4.20;3.13;;;;;;;13.65;59.79;95005.78;5009179;28;20521;-72
2022/01/01 11:07:28;;;;;;;4.10;2.75;;;;;;;13.52;59.19;95003.03;5008455;28;20656;-72
2022/01/01 11:09:57;;;;;;;5.20;2.95;;;;;;;13.43;59.86;95007.75;5008998;28;20676;-71
2022/01/01 11:12:25;;;;;;;4.20;2.65;;;;;;;13.28;59.35;95013.03;5009432;28;20702;-73
2022/01/01 11:14:53;;;;;;;4.00;2.67;;;;;;;13.25;59.59;95000.91;5009444;28;20279;-73
2022/01/01 11:17:21;;;;;;;4.75;2.92;;;;;;;13.37;59.13;95006.41;5009680;28;20221;-72
2022/01/01 11:19:48;;;;;;;3.53;2.50;;;;;;;13.53;58.09;95010.03;5009650;28;20275;-72
2022/01/01 11:22:16;;;;;;;3.58;2.00;;;;;;;13.64;58.01;95017.81;5009414;28;20233;-71
2022/01/01 11:24:44;;;;;;;4.78;2.78;;;;;;;13.55;57.09;94995.31;5009484;28;20608;-79
2022/01/01 11:27:11;;;;;;;4.07;2.42;;;;;;;13.40;58.15;94994.81;5009902;28;20211;-73
2022/01/01 11:29:48;;;;;;;5.90;3.28;;;;;;;13.15;59.17;94995.88;5009377;28;20440;-73
2022/01/01 11:32:18;;;;;;;5.65;3.38;;;;;;;12.74;60.82;95005.63;5010133;28;20302;-73
2022/01/01 11:34:47;;;;;;;3.88;2.72;;;;;;;12.54;61.33;95006.44;5008829;28;20201;-80